East Coast — WBI4636 — position and weather

sailwx.info

Track history (hours):
 
Tides and Currents Weather Stations Pressure Air Temp Water Temp Dewpoint Dewpoint Depression Visibility Wind Speed Wind Dir Waves Ship Positions

East Coast

Owner: FLA DEL MAR INC, CHESAPEAKE CITY, MD. More information available from US FCC via Universal Licensing System and Coast Guard Vessel Documentation Center.

Last reported at 2018-Jan-18 09:30 UTC. Time now 2018-Jan-19 17:36 UTC.
Position N 26°48' W 079°59'.

Type: Tow > 200 m length. MMSI: 15184.

Date/timePositionNaut miles runAvg speedWind from/ knotsBaromVisibWave heightAir tempDewpointWater temp
2018-Jan-18 09:30N 26°48' W 079°59'2 3.5
2018-Jan-18 08:53N 26°50' W 079°58'2 4.7
2018-Jan-18 08:30N 26°52' W 079°58'3 6.7
2018-Jan-18 08:01N 26°55' W 079°59'4 7.2
2018-Jan-18 07:30N 26°58' W 079°59'4 7.3
2018-Jan-18 07:01N 27°02' W 079°59'  
2018-Jan-11 09:46N 39°06' W 074°25'31 8.9
2018-Jan-11 06:15N 39°33' W 074°06'3 8.9
2018-Jan-11 05:58N 39°35' W 074°04'4 9.0
2018-Jan-11 05:29N 39°39' W 074°02'5 8.9
2018-Jan-11 04:57N 39°44' W 073°59'5 8.8
2018-Jan-11 04:21N 39°49' W 073°58'4 8.9
2018-Jan-11 03:56N 39°53' W 073°57'4 8.9
2018-Jan-11 03:26N 39°57' W 073°56'24 8.9
2018-Jan-11 00:42N 40°21' W 073°54'3 9.1
2018-Jan-11 00:22N 40°24' W 073°54'14 8.6
2018-Jan-10 22:44N 40°37' W 074°03'2 8.8
2018-Jan-10 22:30N 40°39' W 074°03'4 8.4
2018-Jan-10 22:00N 40°43' W 074°02'4 7.5
2018-Jan-10 21:30N 40°46' W 074°00'  
Track history (hours):
 
Tides and Currents Weather Stations Pressure Air Temp Water Temp Dewpoint Dewpoint Depression Visibility Wind Speed Wind Dir Waves Ship Positions

East Coast

Owner: FLA DEL MAR INC, CHESAPEAKE CITY, MD. More information available from US FCC via Universal Licensing System and Coast Guard Vessel Documentation Center.

Last reported at 2018-Jan-18 09:30 UTC. Time now 2018-Jan-19 17:36 UTC.
Position N 26°48' W 079°59'.

Type: Tow > 200 m length. MMSI: 15184.

Date/timePositionNaut miles runAvg speedWind from/ knotsBaromVisibWave heightAir tempDewpointWater temp
2018-Jan-18 09:30N 26°48' W 079°59'2 3.5
2018-Jan-18 08:53N 26°50' W 079°58'2 4.7
2018-Jan-18 08:30N 26°52' W 079°58'3 6.7
2018-Jan-18 08:01N 26°55' W 079°59'4 7.2
2018-Jan-18 07:30N 26°58' W 079°59'4 7.3
2018-Jan-18 07:01N 27°02' W 079°59'  
2018-Jan-11 09:46N 39°06' W 074°25'31 8.9
2018-Jan-11 06:15N 39°33' W 074°06'3 8.9
2018-Jan-11 05:58N 39°35' W 074°04'4 9.0
2018-Jan-11 05:29N 39°39' W 074°02'5 8.9
2018-Jan-11 04:57N 39°44' W 073°59'5 8.8
2018-Jan-11 04:21N 39°49' W 073°58'4 8.9
2018-Jan-11 03:56N 39°53' W 073°57'4 8.9
2018-Jan-11 03:26N 39°57' W 073°56'24 8.9
2018-Jan-11 00:42N 40°21' W 073°54'3 9.1
2018-Jan-11 00:22N 40°24' W 073°54'14 8.6
2018-Jan-10 22:44N 40°37' W 074°03'2 8.8
2018-Jan-10 22:30N 40°39' W 074°03'4 8.4
2018-Jan-10 22:00N 40°43' W 074°02'4 7.5
2018-Jan-10 21:30N 40°46' W 074°00'  

Dump ship's entire track history